Biskra, Biskra Airport (DAUB)

NameBiskra Airport
CityBiskra
CountryAlgeria
ICAODAUB
IATABSK
Altitude88 m
CoordinatesGoogle Map
Live Air TrafficLiveATC.net
METARDAUB 251700Z 07003KT 9999 BKN040 SCT100 26/07 Q1007
2020-04-25 17:00:00 Wind: East-Northeast (70°) 1.54 m/s - Visibility: > 10000 m - Temperature: 26 °C - Dew point: 7 °C - Humidity: 29.8% - Pressure: 1007 hPa

Sorry, no flights used the airport in this database.